createdAt,value
2023-01-03T00:02:18.582Z,101734.62
2023-01-03T00:04:49.997Z,101733.20
2023-01-03T00:07:33.958Z,101736.45
2023-01-03T00:10:10.967Z,101744.78
2023-01-03T00:12:38.535Z,101746.77
2023-01-03T00:15:08.004Z,101752.05
2023-01-03T00:17:35.709Z,101752.33
2023-01-03T00:20:04.565Z,101755.86
2023-01-03T00:22:32.629Z,101758.49
2023-01-03T00:25:00.876Z,101757.33
2023-01-03T00:27:29.404Z,101771.55
2023-01-03T00:29:57.712Z,101773.48
2023-01-03T00:32:27.161Z,101780.73
2023-01-03T00:34:56.841Z,101793.30
2023-01-03T00:37:29.966Z,101799.94
2023-01-03T00:39:59.814Z,101804.38
2023-01-03T00:42:29.775Z,101807.30
2023-01-03T00:44:59.609Z,101808.42
2023-01-03T00:47:29.407Z,101809.40
2023-01-03T00:49:59.323Z,101808.44
2023-01-03T00:52:29.090Z,101816.95
2023-01-03T00:54:58.819Z,101819.73
2023-01-03T00:57:28.531Z,101822.48
2023-01-03T00:59:58.374Z,101821.63
2023-01-03T01:02:28.327Z,101820.31
2023-01-03T01:04:58.486Z,101822.16
2023-01-03T01:07:28.371Z,101829.59
2023-01-03T01:09:58.126Z,101832.06
2023-01-03T01:12:27.917Z,101833.85
2023-01-03T01:14:57.761Z,101839.27
2023-01-03T01:17:28.384Z,101844.89
2023-01-03T01:19:58.110Z,101851.84
2023-01-03T01:22:27.969Z,101853.97
2023-01-03T01:24:57.696Z,101859.52
2023-01-03T01:27:27.659Z,101870.10
2023-01-03T01:29:57.810Z,101880.52
2023-01-03T01:32:27.635Z,101880.66
2023-01-03T01:34:57.428Z,101884.37
2023-01-03T01:37:27.200Z,101885.31
2023-01-03T01:39:56.949Z,101885.23
2023-01-03T01:42:45.316Z,101885.79
2023-01-03T01:45:15.342Z,101896.95
2023-01-03T01:48:01.808Z,101901.48
2023-01-03T01:50:49.919Z,101904.76
2023-01-03T01:53:25.672Z,101908.49
2023-01-03T01:56:04.830Z,101908.19
2023-01-03T01:58:41.566Z,101910.27
2023-01-03T02:01:15.229Z,101913.61
2023-01-03T02:03:52.233Z,101909.89
2023-01-03T02:06:21.028Z,101911.80
2023-01-03T02:08:49.210Z,101915.16
2023-01-03T02:12:23.575Z,101925.92
2023-01-03T02:15:28.690Z,101924.84
2023-01-03T02:18:35.662Z,101925.49
2023-01-03T02:21:27.480Z,101930.02
2023-01-03T02:24:23.501Z,101934.14
2023-01-03T02:27:18.282Z,101935.94
2023-01-03T02:30:25.137Z,101944.26
2023-01-03T02:33:30.169Z,101952.02
2023-01-03T02:36:27.219Z,101951.19
2023-01-03T02:39:23.821Z,101959.11
2023-01-03T02:42:18.405Z,101960.22
2023-01-03T02:45:04.561Z,101964.02
2023-01-03T02:47:49.212Z,101968.52
2023-01-03T02:50:27.521Z,101969.71
2023-01-03T02:53:05.839Z,101975.34
2023-01-03T02:55:39.461Z,101978.47
2023-01-03T02:58:17.032Z,101983.17
2023-01-03T03:00:55.896Z,101984.31
2023-01-03T03:03:34.078Z,101990.46
2023-01-03T03:06:27.791Z,101993.20
2023-01-03T03:08:58.456Z,101993.58
2023-01-03T03:11:53.899Z,101996.24
2023-01-03T03:14:34.988Z,101995.61
2023-01-03T03:17:11.852Z,101997.07
2023-01-03T03:20:06.033Z,101999.85
2023-01-03T03:23:08.848Z,102002.00
2023-01-03T03:25:47.931Z,102004.76
2023-01-03T03:28:36.583Z,102010.87
2023-01-03T03:31:39.582Z,102010.91
2023-01-03T03:34:18.571Z,102010.45
2023-01-03T03:37:10.295Z,102013.70
2023-01-03T03:39:59.023Z,102023.78
2023-01-03T03:43:23.575Z,102019.06
2023-01-03T03:46:14.248Z,102031.42
2023-01-03T03:49:20.225Z,102032.96
2023-01-03T03:51:54.283Z,102034.33
2023-01-03T03:54:26.353Z,102036.58
2023-01-03T03:57:16.044Z,102042.63
2023-01-03T03:59:53.348Z,102047.32
2023-01-03T04:02:27.671Z,102048.42
2023-01-03T04:05:03.097Z,102052.08
2023-01-03T04:07:32.900Z,102055.41
2023-01-03T04:10:04.901Z,102055.98
2023-01-03T04:12:35.058Z,102061.22
2023-01-03T04:15:06.980Z,102065.58
2023-01-03T04:17:36.709Z,102069.64
2023-01-03T04:20:07.310Z,102067.92
2023-01-03T04:22:37.774Z,102073.79
2023-01-03T04:25:08.691Z,102077.48
2023-01-03T04:27:38.406Z,102077.77
2023-01-03T04:30:11.441Z,102083.95
2023-01-03T04:32:41.348Z,102086.89
2023-01-03T04:35:11.087Z,102090.52
2023-01-03T04:37:40.918Z,102095.44
2023-01-03T04:40:11.889Z,102095.33
2023-01-03T04:43:00.325Z,102094.35
2023-01-03T04:45:30.094Z,102100.85
2023-01-03T04:47:59.917Z,102100.50
2023-01-03T04:50:30.673Z,102104.17
2023-01-03T04:53:00.275Z,102107.77
2023-01-03T04:55:28.176Z,102108.83
2023-01-03T04:57:56.746Z,102112.50
2023-01-03T05:00:25.110Z,102110.43
2023-01-03T05:02:53.608Z,102111.55
2023-01-03T05:05:22.099Z,102117.20
2023-01-03T05:07:50.590Z,102123.51
2023-01-03T05:10:19.037Z,102126.52
2023-01-03T05:12:59.929Z,102131.14
2023-01-03T05:15:30.595Z,102136.20
2023-01-03T05:17:59.531Z,102139.94
2023-01-03T05:20:47.072Z,102139.74
2023-01-03T05:23:37.081Z,102139.71
2023-01-03T05:26:14.878Z,102140.15
2023-01-03T05:28:50.808Z,102149.31
2023-01-03T05:31:21.135Z,102149.16
2023-01-03T05:33:51.029Z,102150.92
2023-01-03T05:36:21.070Z,102150.04
2023-01-03T05:38:50.862Z,102154.63
2023-01-03T05:41:41.069Z,102153.23
2023-01-03T05:44:11.159Z,102157.05
2023-01-03T05:46:41.102Z,102160.70
2023-01-03T05:49:10.990Z,102161.94
2023-01-03T05:51:41.031Z,102165.61
2023-01-03T05:54:19.651Z,102168.10
2023-01-03T05:56:51.106Z,102173.70
2023-01-03T05:59:22.784Z,102177.58
2023-01-03T06:01:53.156Z,102180.25
2023-01-03T06:04:23.364Z,102179.04
2023-01-03T06:06:53.220Z,102181.38
2023-01-03T06:09:23.144Z,102185.27
2023-01-03T06:11:52.935Z,102184.93
2023-01-03T06:14:22.904Z,102185.16
2023-01-03T06:17:11.251Z,102183.15
2023-01-03T06:19:41.321Z,102186.88
2023-01-03T06:22:11.456Z,102188.50
2023-01-03T06:24:40.113Z,102191.61
2023-01-03T06:27:08.157Z,102194.49
2023-01-03T06:29:36.398Z,102198.21
2023-01-03T06:32:09.547Z,102198.90
2023-01-03T06:34:39.884Z,102203.50
2023-01-03T06:37:09.801Z,102206.55
2023-01-03T06:39:39.716Z,102213.29
2023-01-03T06:42:30.188Z,102209.74
2023-01-03T06:45:18.641Z,102211.11
2023-01-03T06:48:07.132Z,102215.75
2023-01-03T06:50:59.427Z,102213.69
2023-01-03T06:53:38.873Z,102214.70
2023-01-03T06:56:09.405Z,102221.86
2023-01-03T06:58:38.205Z,102227.29
2023-01-03T07:01:08.222Z,102231.92
2023-01-03T07:03:38.185Z,102239.13
2023-01-03T07:06:08.051Z,102243.70
2023-01-03T07:08:42.630Z,102247.48
2023-01-03T07:11:15.884Z,102249.02
2023-01-03T07:14:01.140Z,102253.00
2023-01-03T07:16:41.141Z,102256.95
2023-01-03T07:19:18.417Z,102258.86
2023-01-03T07:21:48.205Z,102260.73
2023-01-03T07:24:19.184Z,102261.65
2023-01-03T07:26:48.970Z,102264.25
2023-01-03T07:29:18.812Z,102269.84
2023-01-03T07:31:48.599Z,102272.46
2023-01-03T07:34:19.127Z,102270.48
2023-01-03T07:36:49.090Z,102274.50
2023-01-03T07:39:19.226Z,102270.09
2023-01-03T07:42:10.529Z,102270.14
2023-01-03T07:44:40.374Z,102272.21
2023-01-03T07:47:10.164Z,102274.17
2023-01-03T07:49:39.964Z,102274.30
2023-01-03T07:52:09.829Z,102273.77
2023-01-03T07:54:39.724Z,102278.43
2023-01-03T07:57:09.958Z,102281.08
2023-01-03T07:59:39.709Z,102288.65
2023-01-03T08:02:09.636Z,102288.50
2023-01-03T08:04:39.579Z,102289.10
2023-01-03T08:07:09.395Z,102291.04
2023-01-03T08:09:57.697Z,102298.78
2023-01-03T08:12:46.091Z,102299.33
2023-01-03T08:15:15.982Z,102304.70
2023-01-03T08:17:45.751Z,102310.56
2023-01-03T08:20:15.726Z,102310.45
2023-01-03T08:22:45.562Z,102314.45
2023-01-03T08:25:15.449Z,102317.33
2023-01-03T08:27:50.016Z,102319.09
2023-01-03T08:30:20.293Z,102319.23
2023-01-03T08:32:50.427Z,102317.79
2023-01-03T08:35:21.935Z,102323.25
2023-01-03T08:37:53.330Z,102327.86
2023-01-03T08:40:23.333Z,102330.75
2023-01-03T08:42:51.622Z,102334.85
2023-01-03T08:45:20.298Z,102336.10
2023-01-03T08:47:48.385Z,102338.80
2023-01-03T08:50:17.018Z,102340.95
2023-01-03T08:52:45.611Z,102339.61
2023-01-03T08:55:15.367Z,102338.91
2023-01-03T08:57:45.568Z,102341.17
2023-01-03T09:00:14.782Z,102345.90
2023-01-03T09:02:44.133Z,102348.23
2023-01-03T09:05:14.088Z,102349.80
2023-01-03T09:07:44.132Z,102346.83
2023-01-03T09:10:13.999Z,102348.67
2023-01-03T09:12:43.931Z,102351.16
2023-01-03T09:15:14.277Z,102354.21
2023-01-03T09:17:45.425Z,102357.30
2023-01-03T09:20:14.346Z,102363.63
2023-01-03T09:22:44.231Z,102359.74
2023-01-03T09:25:12.366Z,102361.14
2023-01-03T09:27:46.717Z,102366.59
2023-01-03T09:30:17.666Z,102365.12
2023-01-03T09:32:51.442Z,102367.98
2023-01-03T09:35:21.300Z,102366.68
2023-01-03T09:37:51.094Z,102368.88
2023-01-03T09:40:20.953Z,102368.11
2023-01-03T09:43:10.861Z,102362.60
2023-01-03T09:45:56.735Z,102360.42
2023-01-03T09:48:41.048Z,102360.05
2023-01-03T09:51:55.369Z,102358.23
2023-01-03T09:54:53.491Z,102370.92
2023-01-03T09:57:54.737Z,102373.19
2023-01-03T10:01:02.055Z,102364.40
2023-01-03T10:04:28.844Z,102360.64
2023-01-03T10:07:18.498Z,102365.89
2023-01-03T10:10:25.141Z,102370.89
2023-01-03T10:13:26.011Z,102358.52
2023-01-03T10:16:01.748Z,102346.77
2023-01-03T10:18:53.464Z,102341.05
2023-01-03T10:21:56.038Z,102333.74
2023-01-03T10:24:32.431Z,102334.71
2023-01-03T10:27:22.374Z,102343.00
2023-01-03T10:29:56.784Z,102331.83
2023-01-03T10:33:19.153Z,102326.27
2023-01-03T10:35:49.472Z,102330.09
2023-01-03T10:38:23.037Z,102336.48
2023-01-03T10:41:02.536Z,102332.04
2023-01-03T10:43:39.146Z,102341.17
2023-01-03T10:46:16.774Z,102339.05
2023-01-03T10:49:25.878Z,102332.66
2023-01-03T10:51:55.601Z,102335.88
2023-01-03T10:54:43.745Z,102333.64
2023-01-03T10:57:48.410Z,102327.27
2023-01-03T11:00:48.715Z,102318.77
2023-01-03T11:03:23.503Z,102315.77
2023-01-03T11:06:02.296Z,102320.53
2023-01-03T11:08:46.133Z,102319.86
2023-01-03T11:11:35.201Z,102332.02
2023-01-03T11:14:27.622Z,102333.30
2023-01-03T11:17:05.992Z,102337.83
2023-01-03T11:19:35.791Z,102337.78
2023-01-03T11:22:44.823Z,102337.27
2023-01-03T11:25:35.321Z,102339.08
2023-01-03T11:28:54.939Z,102347.06
2023-01-03T11:31:43.476Z,102357.20
2023-01-03T11:38:32.785Z,102352.66
2023-01-03T11:41:17.565Z,102348.55
2023-01-03T11:44:27.583Z,102350.38
2023-01-03T11:47:15.302Z,102349.46
2023-01-03T11:50:25.913Z,102342.88
2023-01-03T11:53:49.926Z,102343.65
2023-01-03T11:56:30.737Z,102345.48
2023-01-03T11:59:47.557Z,102346.87
2023-01-03T12:02:44.556Z,102342.63
2023-01-03T12:05:47.159Z,102348.92
2023-01-03T12:08:52.541Z,102343.66
2023-01-03T12:11:48.541Z,102348.90
2023-01-03T12:14:52.801Z,102349.38
2023-01-03T12:17:49.488Z,102348.64
2023-01-03T12:20:36.333Z,102349.79
2023-01-03T12:23:24.079Z,102347.52
2023-01-03T12:26:02.837Z,102348.34
2023-01-03T12:28:48.064Z,102349.86
2023-01-03T12:31:36.240Z,102353.86
2023-01-03T12:34:25.908Z,102349.23
2023-01-03T12:37:19.181Z,102346.48
2023-01-03T12:40:13.513Z,102337.31
2023-01-03T12:43:18.069Z,102336.51
2023-01-03T12:46:13.121Z,102339.45
2023-01-03T12:49:14.490Z,102342.27
2023-01-03T12:51:42.207Z,102339.50
2023-01-03T12:54:51.591Z,102339.33
2023-01-03T12:57:33.250Z,102342.17
2023-01-03T13:00:22.502Z,102342.27
2023-01-03T13:03:19.231Z,102349.84
2023-01-03T13:06:00.310Z,102350.39
2023-01-03T13:08:44.233Z,102345.08
2023-01-03T13:11:41.595Z,102345.53
2023-01-03T13:14:24.907Z,102342.73
2023-01-03T13:17:04.238Z,102338.63
2023-01-03T13:19:36.596Z,102328.33
2023-01-03T13:22:33.998Z,102329.70
2023-01-03T13:25:40.732Z,102326.42
2023-01-03T13:28:19.773Z,102323.83
2023-01-03T13:30:49.669Z,102323.27
2023-01-03T13:33:21.363Z,102322.66
2023-01-03T13:36:01.193Z,102320.28
2023-01-03T13:38:35.900Z,102318.95
2023-01-03T13:41:37.121Z,102319.09
2023-01-03T13:44:24.940Z,102323.20
2023-01-03T13:46:55.301Z,102325.11
2023-01-03T13:49:29.494Z,102321.66
2023-01-03T13:51:59.739Z,102323.21
2023-01-03T13:54:56.027Z,102321.63
2023-01-03T13:57:37.511Z,102321.23
2023-01-03T14:00:20.128Z,102324.62
2023-01-03T14:03:17.865Z,102326.49
2023-01-03T14:06:42.423Z,102322.63
2023-01-03T14:09:25.132Z,102325.34
2023-01-03T14:12:22.400Z,102326.27
2023-01-03T14:14:58.043Z,102325.46
2023-01-03T14:17:33.096Z,102328.98
2023-01-03T14:20:11.308Z,102333.05
2023-01-03T14:22:48.164Z,102337.39
2023-01-03T14:25:51.715Z,102339.30
2023-01-03T14:28:32.762Z,102339.07
2023-01-03T14:31:07.303Z,102342.35
2023-01-03T14:33:42.898Z,102340.44
2023-01-03T14:36:14.235Z,102342.86
2023-01-03T14:38:58.461Z,102343.52
2023-01-03T14:41:32.907Z,102343.59
2023-01-03T14:44:09.404Z,102347.75
2023-01-03T14:46:48.844Z,102349.51
2023-01-03T14:49:43.825Z,102351.90
2023-01-03T14:52:51.005Z,102355.83
2023-01-03T14:55:25.050Z,102355.02
2023-01-03T14:57:55.803Z,102352.05
2023-01-03T15:00:36.528Z,102350.90
2023-01-03T15:03:13.129Z,102353.34
2023-01-03T15:05:43.368Z,102353.04
2023-01-03T15:08:31.388Z,102351.89
2023-01-03T15:11:09.066Z,102356.36
2023-01-03T15:13:55.498Z,102354.55
2023-01-03T15:16:41.265Z,102356.59
2023-01-03T15:19:24.419Z,102365.05
2023-01-03T15:22:12.294Z,102362.64
2023-01-03T15:24:46.964Z,102369.14
2023-01-03T15:27:38.152Z,102365.23
2023-01-03T15:30:22.189Z,102368.38
2023-01-03T15:33:19.969Z,102372.85
2023-01-03T15:35:54.327Z,102374.94
2023-01-03T15:38:36.627Z,102375.94
2023-01-03T15:42:19.702Z,102379.08
2023-01-03T15:44:41.874Z,102381.58
2023-01-03T15:47:13.885Z,102381.88
2023-01-03T15:49:53.366Z,102381.27
2023-01-03T15:52:23.075Z,102377.84
2023-01-03T15:54:52.872Z,102378.89
2023-01-03T15:57:29.199Z,102381.55
2023-01-03T16:00:03.582Z,102384.50
2023-01-03T16:02:33.701Z,102385.69
2023-01-03T16:05:03.838Z,102388.80
2023-01-03T16:07:33.601Z,102388.48
2023-01-03T16:10:03.700Z,102389.64
2023-01-03T16:12:37.288Z,102389.14
2023-01-03T16:15:16.521Z,102390.55
2023-01-03T16:17:48.479Z,102394.48
2023-01-03T16:20:19.907Z,102389.30
2023-01-03T16:23:00.342Z,102389.05
2023-01-03T16:25:31.135Z,102388.67
2023-01-03T16:28:00.896Z,102383.79
2023-01-03T16:30:30.793Z,102381.86
2023-01-03T16:33:00.593Z,102379.55
2023-01-03T16:35:30.478Z,102379.45
2023-01-03T16:38:00.519Z,102384.52
2023-01-03T16:40:30.440Z,102384.45
2023-01-03T16:43:00.164Z,102385.79
2023-01-03T16:45:30.167Z,102386.18
2023-01-03T16:48:00.149Z,102387.70
2023-01-03T16:50:36.847Z,102387.29
2023-01-03T16:53:09.734Z,102391.68
2023-01-03T16:55:39.889Z,102389.73
2023-01-03T16:58:15.620Z,102392.91
2023-01-03T17:00:45.381Z,102396.73
2023-01-03T17:03:15.318Z,102395.38
2023-01-03T17:05:47.627Z,102395.74
2023-01-03T17:08:35.880Z,102395.79
2023-01-03T17:11:07.971Z,102401.06
2023-01-03T17:13:41.949Z,102399.85
2023-01-03T17:16:19.901Z,102399.11
2023-01-03T17:18:50.927Z,102398.66
2023-01-03T17:21:25.332Z,102400.14
2023-01-03T17:24:18.949Z,102400.60
2023-01-03T17:26:53.343Z,102403.11
2023-01-03T17:29:26.688Z,102405.65
2023-01-03T17:31:54.552Z,102406.86
2023-01-03T17:34:30.634Z,102409.73
2023-01-03T17:37:01.267Z,102414.00
2023-01-03T17:39:31.308Z,102414.20
2023-01-03T17:42:14.981Z,102416.52
2023-01-03T17:45:06.358Z,102410.98
2023-01-03T17:48:00.299Z,102413.95
2023-01-03T17:50:32.318Z,102415.31
2023-01-03T17:53:02.434Z,102415.75
2023-01-03T17:55:32.209Z,102414.00
2023-01-03T17:58:04.614Z,102412.45
2023-01-03T18:00:34.786Z,102412.46
2023-01-03T18:03:04.831Z,102410.38
2023-01-03T18:05:33.150Z,102409.61
2023-01-03T18:08:03.840Z,102406.86
2023-01-03T18:10:46.471Z,102405.97
2023-01-03T18:13:28.944Z,102398.92
2023-01-03T18:15:59.443Z,102394.70
2023-01-03T18:18:31.379Z,102392.09
2023-01-03T18:21:02.092Z,102389.64
2023-01-03T18:23:36.103Z,102387.09
2023-01-03T18:26:13.322Z,102384.54
2023-01-03T18:28:43.510Z,102383.93
2023-01-03T18:31:18.611Z,102380.36
2023-01-03T18:33:48.402Z,102384.69
2023-01-03T18:36:42.579Z,102384.24
2023-01-03T18:39:16.517Z,102380.05
2023-01-03T18:41:46.145Z,102377.04
2023-01-03T18:44:24.452Z,102379.45
2023-01-03T18:46:52.885Z,102384.04
2023-01-03T18:49:22.737Z,102377.81
2023-01-03T18:51:53.960Z,102377.02
2023-01-03T18:54:23.176Z,102373.13
2023-01-03T18:56:52.951Z,102374.21
2023-01-03T18:59:27.393Z,102368.31
2023-01-03T19:01:56.773Z,102366.44
2023-01-03T19:04:26.686Z,102371.88
2023-01-03T19:06:56.513Z,102373.38
2023-01-03T19:09:29.555Z,102373.73
2023-01-03T19:11:58.582Z,102376.98
2023-01-03T19:14:28.412Z,102375.70
2023-01-03T19:16:58.372Z,102381.17
2023-01-03T19:19:28.214Z,102380.21
2023-01-03T19:21:58.036Z,102382.30
2023-01-03T19:24:39.268Z,102382.04
2023-01-03T19:27:20.968Z,102379.16
2023-01-03T19:29:52.523Z,102371.59
2023-01-03T19:32:29.768Z,102369.28
2023-01-03T19:34:59.397Z,102371.61
2023-01-03T19:37:29.397Z,102366.23
2023-01-03T19:39:59.535Z,102364.00
2023-01-03T19:42:47.320Z,102360.95
2023-01-03T19:45:29.055Z,102358.48
2023-01-03T19:48:03.120Z,102351.84
2023-01-03T19:50:35.564Z,102351.12
2023-01-03T19:53:04.292Z,102350.35
2023-01-03T19:55:37.158Z,102344.42
2023-01-03T19:58:29.301Z,102346.19
2023-01-03T20:01:00.117Z,102341.02
2023-01-03T20:03:39.075Z,102337.08
2023-01-03T20:06:13.845Z,102336.77
2023-01-03T20:08:44.268Z,102338.76
2023-01-03T20:11:22.347Z,102340.27
2023-01-03T20:13:52.879Z,102339.39
2023-01-03T20:16:23.812Z,102341.85
2023-01-03T20:18:53.781Z,102336.40
2023-01-03T20:21:30.538Z,102330.22
2023-01-03T20:24:02.793Z,102329.66
2023-01-03T20:26:34.623Z,102328.30
2023-01-03T20:29:02.103Z,102332.15
2023-01-03T20:31:30.690Z,102328.73
2023-01-03T20:33:59.850Z,102320.21
2023-01-03T20:36:36.322Z,102315.98
2023-01-03T20:39:33.237Z,102323.64
2023-01-03T20:42:16.254Z,102321.52
2023-01-03T20:44:45.794Z,102320.98
2023-01-03T20:47:15.741Z,102318.84
2023-01-03T20:49:43.050Z,102319.62
2023-01-03T20:52:16.841Z,102316.81
2023-01-03T20:54:46.696Z,102315.59
2023-01-03T20:57:21.127Z,102314.05
2023-01-03T20:59:50.837Z,102314.19
2023-01-03T21:02:20.813Z,102315.02
2023-01-03T21:04:50.923Z,102312.27
2023-01-03T21:07:50.262Z,102309.39
2023-01-03T21:10:49.267Z,102308.31
2023-01-03T21:13:21.140Z,102300.05
2023-01-03T21:15:51.630Z,102302.61
2023-01-03T21:18:21.469Z,102303.73
2023-01-03T21:20:51.472Z,102302.77
2023-01-03T21:23:23.650Z,102296.46
2023-01-03T21:25:55.744Z,102295.21
2023-01-03T21:28:25.434Z,102294.92
2023-01-03T21:30:59.874Z,102291.17
2023-01-03T21:33:32.892Z,102286.90
2023-01-03T21:36:02.741Z,102285.14
2023-01-03T21:38:32.517Z,102283.57
2023-01-03T21:41:02.404Z,102281.64
2023-01-03T21:43:32.255Z,102280.27
2023-01-03T21:46:07.227Z,102281.14
2023-01-03T21:48:37.153Z,102282.73
2023-01-03T21:51:07.102Z,102286.81
2023-01-03T21:53:37.126Z,102287.45
2023-01-03T21:56:23.494Z,102283.52
2023-01-03T21:58:53.316Z,102288.85
2023-01-03T22:01:24.526Z,102288.72
2023-01-03T22:04:11.886Z,102287.44
2023-01-03T22:06:41.701Z,102286.59
2023-01-03T22:09:31.402Z,102287.45
2023-01-03T22:12:01.129Z,102283.20
2023-01-03T22:14:30.928Z,102288.50
2023-01-03T22:17:00.656Z,102284.41
2023-01-03T22:19:30.488Z,102281.25
2023-01-03T22:22:00.319Z,102278.44
2023-01-03T22:24:30.209Z,102271.96
2023-01-03T22:27:00.257Z,102271.33
2023-01-03T22:29:30.094Z,102264.91
2023-01-03T22:32:00.069Z,102269.64
2023-01-03T22:34:30.054Z,102262.95
2023-01-03T22:36:59.855Z,102260.86
2023-01-03T22:39:29.938Z,102260.16
2023-01-03T22:41:59.852Z,102256.48
2023-01-03T22:44:29.798Z,102249.97
2023-01-03T22:46:59.694Z,102245.19
2023-01-03T22:49:29.892Z,102246.02
2023-01-03T22:51:59.928Z,102240.58
2023-01-03T22:54:29.871Z,102234.77
2023-01-03T22:56:59.723Z,102235.84
2023-01-03T22:59:30.592Z,102239.44
2023-01-03T23:02:00.611Z,102236.38
2023-01-03T23:04:30.758Z,102238.41
2023-01-03T23:07:00.778Z,102234.38
2023-01-03T23:09:30.529Z,102233.00
2023-01-03T23:12:18.985Z,102230.34
2023-01-03T23:14:46.265Z,102222.23
2023-01-03T23:17:33.450Z,102220.62
2023-01-03T23:20:03.596Z,102219.70
2023-01-03T23:22:33.383Z,102222.02
2023-01-03T23:25:03.301Z,102218.23
2023-01-03T23:27:33.079Z,102214.52
2023-01-03T23:30:03.590Z,102208.55
2023-01-03T23:32:33.061Z,102206.67
2023-01-03T23:35:03.195Z,102197.64
2023-01-03T23:37:33.080Z,102188.26
2023-01-03T23:40:04.440Z,102185.14
2023-01-03T23:42:34.324Z,102178.95
2023-01-03T23:45:05.176Z,102174.02
2023-01-03T23:47:34.952Z,102174.23
2023-01-03T23:50:05.608Z,102171.71
2023-01-03T23:52:34.162Z,102176.08
2023-01-03T23:55:05.282Z,102179.83
2023-01-03T23:57:40.795Z,102176.73
